Terminal Aerodrome Forecast
Issued by NWS

Home | Current Version | Previous Version | Text Only | Print | Product List | Glossary On
Versions: 1 2 3 4 5 6 7 8 9 10 11 12 13 14 15 16 17 18 19 20 21 22 23
000
FTUS41 KGYX 280527
TAFPSM
TAF
KPSM 280527Z 2806/2906 30012G19KT 3/4SM -SN BLSN BR BKN003 OVC015
     FM280800 32010G18KT 3SM -SN BKN025 OVC040
     FM281300 32009KT P6SM -SHSN BKN040 OVC080
     FM281600 32009KT P6SM SCT050 BKN080=

USA.gov is the U.S. government's official web portal to all federal, state and local government web resources and services.